sensor_id;sensor_type;location;lat;lon;timestamp;P1;durP1;ratioP1;P2;durP2;ratioP2
3155;SDS011;1588;50.892;7.082;2022-11-18T00:01:36;5.37;;;2.50;;
3155;SDS011;1588;50.892;7.082;2022-11-18T00:06:39;4.37;;;2.17;;
3155;SDS011;1588;50.892;7.082;2022-11-18T00:11:41;5.27;;;2.10;;
3155;SDS011;1588;50.892;7.082;2022-11-18T00:17:02;11.93;;;2.13;;
3155;SDS011;1588;50.892;7.082;2022-11-18T00:22:07;4.43;;;2.07;;
3155;SDS011;1588;50.892;7.082;2022-11-18T00:27:12;5.17;;;2.27;;
3155;SDS011;1588;50.892;7.082;2022-11-18T00:32:15;4.20;;;2.00;;
3155;SDS011;1588;50.892;7.082;2022-11-18T00:37:18;7.83;;;2.70;;
3155;SDS011;1588;50.892;7.082;2022-11-18T00:42:20;12.40;;;2.00;;
3155;SDS011;1588;50.892;7.082;2022-11-18T00:47:42;13.53;;;2.33;;
3155;SDS011;1588;50.892;7.082;2022-11-18T00:52:44;5.23;;;2.03;;
3155;SDS011;1588;50.892;7.082;2022-11-18T00:57:46;5.17;;;2.20;;
3155;SDS011;1588;50.892;7.082;2022-11-18T01:02:50;3.97;;;1.90;;
3155;SDS011;1588;50.892;7.082;2022-11-18T01:07:52;2.40;;;1.77;;
3155;SDS011;1588;50.892;7.082;2022-11-18T01:12:55;5.00;;;2.60;;
3155;SDS011;1588;50.892;7.082;2022-11-18T01:18:16;6.60;;;2.13;;
3155;SDS011;1588;50.892;7.082;2022-11-18T01:23:20;8.77;;;2.73;;
3155;SDS011;1588;50.892;7.082;2022-11-18T01:28:22;4.07;;;2.27;;
3155;SDS011;1588;50.892;7.082;2022-11-18T01:33:26;9.07;;;2.70;;
3155;SDS011;1588;50.892;7.082;2022-11-18T01:38:28;12.77;;;2.10;;
3155;SDS011;1588;50.892;7.082;2022-11-18T01:43:44;6.07;;;2.73;;
3155;SDS011;1588;50.892;7.082;2022-11-18T01:48:51;4.27;;;2.13;;
3155;SDS011;1588;50.892;7.082;2022-11-18T01:53:56;5.60;;;2.40;;
3155;SDS011;1588;50.892;7.082;2022-11-18T01:59:04;7.07;;;2.50;;
3155;SDS011;1588;50.892;7.082;2022-11-18T02:04:11;7.37;;;2.40;;
3155;SDS011;1588;50.892;7.082;2022-11-18T02:09:14;5.73;;;2.13;;
3155;SDS011;1588;50.892;7.082;2022-11-18T02:14:19;6.30;;;2.13;;
3155;SDS011;1588;50.892;7.082;2022-11-18T02:19:29;9.57;;;2.80;;
3155;SDS011;1588;50.892;7.082;2022-11-18T02:24:48;6.37;;;2.70;;
3155;SDS011;1588;50.892;7.082;2022-11-18T02:30:02;8.27;;;2.60;;
3155;SDS011;1588;50.892;7.082;2022-11-18T02:35:18;5.50;;;1.93;;
3155;SDS011;1588;50.892;7.082;2022-11-18T02:40:27;8.87;;;2.63;;
3155;SDS011;1588;50.892;7.082;2022-11-18T02:45:33;9.63;;;2.30;;
3155;SDS011;1588;50.892;7.082;2022-11-18T02:50:37;7.43;;;1.70;;
3155;SDS011;1588;50.892;7.082;2022-11-18T02:55:41;4.33;;;2.23;;
3155;SDS011;1588;50.892;7.082;2022-11-18T03:00:52;6.40;;;2.27;;
3155;SDS011;1588;50.892;7.082;2022-11-18T03:06:01;8.70;;;2.80;;
3155;SDS011;1588;50.892;7.082;2022-11-18T03:11:11;12.30;;;2.70;;
3155;SDS011;1588;50.892;7.082;2022-11-18T03:16:18;6.50;;;1.93;;
3155;SDS011;1588;50.892;7.082;2022-11-18T03:21:28;7.63;;;2.77;;
3155;SDS011;1588;50.892;7.082;2022-11-18T03:26:37;12.80;;;2.83;;
3155;SDS011;1588;50.892;7.082;2022-11-18T03:31:44;2.23;;;1.87;;
3155;SDS011;1588;50.892;7.082;2022-11-18T03:36:50;9.57;;;2.77;;
3155;SDS011;1588;50.892;7.082;2022-11-18T03:41:59;11.87;;;2.47;;
3155;SDS011;1588;50.892;7.082;2022-11-18T03:47:09;4.80;;;2.40;;
3155;SDS011;1588;50.892;7.082;2022-11-18T03:52:16;9.97;;;2.30;;
3155;SDS011;1588;50.892;7.082;2022-11-18T03:57:28;8.13;;;2.40;;
3155;SDS011;1588;50.892;7.082;2022-11-18T04:02:36;6.57;;;2.60;;
3155;SDS011;1588;50.892;7.082;2022-11-18T04:07:41;12.40;;;2.70;;
3155;SDS011;1588;50.892;7.082;2022-11-18T04:12:58;6.63;;;2.90;;
3155;SDS011;1588;50.892;7.082;2022-11-18T04:18:08;6.57;;;2.90;;
3155;SDS011;1588;50.892;7.082;2022-11-18T04:23:11;13.50;;;3.47;;
3155;SDS011;1588;50.892;7.082;2022-11-18T04:28:13;3.70;;;2.10;;
3155;SDS011;1588;50.892;7.082;2022-11-18T04:33:17;7.33;;;2.40;;
3155;SDS011;1588;50.892;7.082;2022-11-18T04:38:19;6.07;;;2.33;;
3155;SDS011;1588;50.892;7.082;2022-11-18T04:43:27;4.37;;;2.20;;
3155;SDS011;1588;50.892;7.082;2022-11-18T04:48:31;7.83;;;2.80;;
3155;SDS011;1588;50.892;7.082;2022-11-18T04:53:52;5.63;;;2.50;;
3155;SDS011;1588;50.892;7.082;2022-11-18T04:58:54;6.77;;;2.53;;
3155;SDS011;1588;50.892;7.082;2022-11-18T05:04:00;10.27;;;3.07;;
3155;SDS011;1588;50.892;7.082;2022-11-18T05:09:03;17.90;;;2.97;;
3155;SDS011;1588;50.892;7.082;2022-11-18T05:14:05;13.30;;;3.10;;
3155;SDS011;1588;50.892;7.082;2022-11-18T05:19:09;8.03;;;3.30;;
3155;SDS011;1588;50.892;7.082;2022-11-18T05:24:17;5.67;;;2.70;;
3155;SDS011;1588;50.892;7.082;2022-11-18T05:29:20;8.83;;;3.20;;
3155;SDS011;1588;50.892;7.082;2022-11-18T05:34:24;8.67;;;3.30;;
3155;SDS011;1588;50.892;7.082;2022-11-18T05:39:27;5.07;;;3.00;;
3155;SDS011;1588;50.892;7.082;2022-11-18T05:44:29;9.10;;;2.90;;
3155;SDS011;1588;50.892;7.082;2022-11-18T05:49:33;4.83;;;2.47;;
3155;SDS011;1588;50.892;7.082;2022-11-18T05:54:37;16.43;;;3.10;;
3155;SDS011;1588;50.892;7.082;2022-11-18T05:59:40;10.47;;;2.60;;
3155;SDS011;1588;50.892;7.082;2022-11-18T06:04:44;10.10;;;2.90;;
3155;SDS011;1588;50.892;7.082;2022-11-18T06:09:50;8.83;;;2.80;;
3155;SDS011;1588;50.892;7.082;2022-11-18T06:14:55;10.50;;;2.73;;
3155;SDS011;1588;50.892;7.082;2022-11-18T06:20:02;7.10;;;2.90;;
3155;SDS011;1588;50.892;7.082;2022-11-18T06:25:06;9.33;;;3.07;;
3155;SDS011;1588;50.892;7.082;2022-11-18T06:30:09;8.00;;;2.60;;
3155;SDS011;1588;50.892;7.082;2022-11-18T06:35:13;3.60;;;2.30;;
3155;SDS011;1588;50.892;7.082;2022-11-18T06:40:16;9.00;;;3.03;;
3155;SDS011;1588;50.892;7.082;2022-11-18T06:45:18;3.90;;;2.63;;
3155;SDS011;1588;50.892;7.082;2022-11-18T06:50:22;7.90;;;2.97;;
3155;SDS011;1588;50.892;7.082;2022-11-18T06:55:25;4.37;;;2.10;;
3155;SDS011;1588;50.892;7.082;2022-11-18T07:00:27;13.43;;;3.10;;
3155;SDS011;1588;50.892;7.082;2022-11-18T07:05:34;5.37;;;2.70;;
3155;SDS011;1588;50.892;7.082;2022-11-18T07:10:52;5.37;;;2.67;;
3155;SDS011;1588;50.892;7.082;2022-11-18T07:16:32;4.57;;;2.40;;
3155;SDS011;1588;50.892;7.082;2022-11-18T07:27:41;8.70;;;3.07;;
3155;SDS011;1588;50.892;7.082;2022-11-18T07:32:54;7.03;;;2.63;;
3155;SDS011;1588;50.892;7.082;2022-11-18T07:38:06;5.90;;;2.70;;
3155;SDS011;1588;50.892;7.082;2022-11-18T07:43:20;6.00;;;2.70;;
3155;SDS011;1588;50.892;7.082;2022-11-18T07:48:49;7.57;;;2.57;;
3155;SDS011;1588;50.892;7.082;2022-11-18T07:54:07;5.87;;;2.83;;
3155;SDS011;1588;50.892;7.082;2022-11-18T07:59:33;7.37;;;3.83;;
3155;SDS011;1588;50.892;7.082;2022-11-18T08:04:36;6.63;;;2.90;;
3155;SDS011;1588;50.892;7.082;2022-11-18T08:09:41;8.93;;;4.07;;
3155;SDS011;1588;50.892;7.082;2022-11-18T08:14:46;12.27;;;3.90;;
3155;SDS011;1588;50.892;7.082;2022-11-18T08:19:56;11.03;;;4.50;;
3155;SDS011;1588;50.892;7.082;2022-11-18T08:25:14;17.93;;;4.03;;
3155;SDS011;1588;50.892;7.082;2022-11-18T08:30:28;17.67;;;4.37;;
3155;SDS011;1588;50.892;7.082;2022-11-18T08:35:39;8.20;;;3.93;;
3155;SDS011;1588;50.892;7.082;2022-11-18T08:40:56;24.93;;;4.27;;
3155;SDS011;1588;50.892;7.082;2022-11-18T08:46:06;15.63;;;4.97;;
3155;SDS011;1588;50.892;7.082;2022-11-18T08:51:18;9.03;;;4.07;;
3155;SDS011;1588;50.892;7.082;2022-11-18T08:56:28;8.67;;;3.93;;
3155;SDS011;1588;50.892;7.082;2022-11-18T09:01:45;15.33;;;4.30;;
3155;SDS011;1588;50.892;7.082;2022-11-18T09:06:52;10.50;;;4.20;;
3155;SDS011;1588;50.892;7.082;2022-11-18T09:12:07;13.60;;;4.70;;
3155;SDS011;1588;50.892;7.082;2022-11-18T09:17:19;10.03;;;4.73;;
3155;SDS011;1588;50.892;7.082;2022-11-18T09:45:07;11.30;;;6.50;;
3155;SDS011;1588;50.892;7.082;2022-11-18T09:50:22;8.13;;;4.03;;
3155;SDS011;1588;50.892;7.082;2022-11-18T09:55:58;6.80;;;3.37;;
3155;SDS011;1588;50.892;7.082;2022-11-18T10:01:10;9.20;;;4.10;;
3155;SDS011;1588;50.892;7.082;2022-11-18T10:06:17;10.10;;;3.80;;
3155;SDS011;1588;50.892;7.082;2022-11-18T10:11:30;5.10;;;3.20;;
3155;SDS011;1588;50.892;7.082;2022-11-18T10:16:41;9.40;;;3.23;;
3155;SDS011;1588;50.892;7.082;2022-11-18T10:21:51;7.10;;;2.70;;
3155;SDS011;1588;50.892;7.082;2022-11-18T10:27:07;8.70;;;3.07;;
3155;SDS011;1588;50.892;7.082;2022-11-18T10:32:21;6.83;;;2.50;;
3155;SDS011;1588;50.892;7.082;2022-11-18T10:37:37;8.90;;;2.70;;
3155;SDS011;1588;50.892;7.082;2022-11-18T10:42:53;9.07;;;1.73;;
3155;SDS011;1588;50.892;7.082;2022-11-18T10:47:57;4.33;;;1.50;;
3155;SDS011;1588;50.892;7.082;2022-11-18T10:58:39;3.53;;;1.73;;
3155;SDS011;1588;50.892;7.082;2022-11-18T11:04:00;13.30;;;1.53;;
3155;SDS011;1588;50.892;7.082;2022-11-18T11:09:25;6.70;;;1.90;;
3155;SDS011;1588;50.892;7.082;2022-11-18T11:15:00;3.27;;;1.77;;
3155;SDS011;1588;50.892;7.082;2022-11-18T11:20:25;4.40;;;1.87;;
3155;SDS011;1588;50.892;7.082;2022-11-18T11:44:34;6.50;;;1.57;;
3155;SDS011;1588;50.892;7.082;2022-11-18T11:49:48;9.90;;;1.80;;
3155;SDS011;1588;50.892;7.082;2022-11-18T11:54:57;7.30;;;1.87;;
3155;SDS011;1588;50.892;7.082;2022-11-18T12:00:16;4.00;;;1.40;;
3155;SDS011;1588;50.892;7.082;2022-11-18T12:05:32;5.40;;;1.77;;
3155;SDS011;1588;50.892;7.082;2022-11-18T12:10:43;5.90;;;1.57;;
3155;SDS011;1588;50.892;7.082;2022-11-18T12:15:57;5.10;;;1.60;;
3155;SDS011;1588;50.892;7.082;2022-11-18T12:39:46;1.83;;;1.20;;
3155;SDS011;1588;50.892;7.082;2022-11-18T12:57:20;3.23;;;1.20;;
3155;SDS011;1588;50.892;7.082;2022-11-18T13:02:34;6.90;;;1.50;;
3155;SDS011;1588;50.892;7.082;2022-11-18T13:07:50;3.77;;;1.23;;
3155;SDS011;1588;50.892;7.082;2022-11-18T13:13:22;5.90;;;1.20;;
3155;SDS011;1588;50.892;7.082;2022-11-18T13:18:28;6.03;;;1.67;;
3155;SDS011;1588;50.892;7.082;2022-11-18T13:24:09;2.93;;;1.40;;
3155;SDS011;1588;50.892;7.082;2022-11-18T13:34:46;5.30;;;1.00;;
3155;SDS011;1588;50.892;7.082;2022-11-18T13:39:55;4.53;;;1.13;;
3155;SDS011;1588;50.892;7.082;2022-11-18T13:45:03;3.13;;;1.53;;
3155;SDS011;1588;50.892;7.082;2022-11-18T13:50:12;6.23;;;1.50;;
3155;SDS011;1588;50.892;7.082;2022-11-18T13:55:31;5.67;;;1.90;;
3155;SDS011;1588;50.892;7.082;2022-11-18T14:00:36;12.40;;;2.07;;
3155;SDS011;1588;50.892;7.082;2022-11-18T14:06:01;6.37;;;1.93;;
3155;SDS011;1588;50.892;7.082;2022-11-18T14:11:11;7.43;;;2.00;;
3155;SDS011;1588;50.892;7.082;2022-11-18T14:16:31;7.60;;;1.60;;
3155;SDS011;1588;50.892;7.082;2022-11-18T14:21:35;8.00;;;1.70;;
3155;SDS011;1588;50.892;7.082;2022-11-18T14:26:48;6.90;;;2.17;;
3155;SDS011;1588;50.892;7.082;2022-11-18T14:37:19;5.00;;;1.57;;
3155;SDS011;1588;50.892;7.082;2022-11-18T14:42:55;10.40;;;3.13;;
3155;SDS011;1588;50.892;7.082;2022-11-18T14:48:04;7.13;;;2.30;;
3155;SDS011;1588;50.892;7.082;2022-11-18T14:53:15;7.97;;;2.73;;
3155;SDS011;1588;50.892;7.082;2022-11-18T14:58:36;3.80;;;2.03;;
3155;SDS011;1588;50.892;7.082;2022-11-18T15:03:39;16.07;;;3.10;;
3155;SDS011;1588;50.892;7.082;2022-11-18T15:08:49;9.97;;;3.73;;
3155;SDS011;1588;50.892;7.082;2022-11-18T15:14:11;14.10;;;2.90;;
3155;SDS011;1588;50.892;7.082;2022-11-18T15:19:17;6.50;;;3.33;;
3155;SDS011;1588;50.892;7.082;2022-11-18T15:24:22;15.07;;;2.80;;
3155;SDS011;1588;50.892;7.082;2022-11-18T15:29:28;15.83;;;4.00;;
3155;SDS011;1588;50.892;7.082;2022-11-18T15:34:42;18.23;;;6.70;;
3155;SDS011;1588;50.892;7.082;2022-11-18T15:40:14;13.27;;;4.77;;
3155;SDS011;1588;50.892;7.082;2022-11-18T15:45:36;15.37;;;5.63;;
3155;SDS011;1588;50.892;7.082;2022-11-18T15:50:38;12.07;;;4.70;;
3155;SDS011;1588;50.892;7.082;2022-11-18T15:55:41;10.30;;;3.00;;
3155;SDS011;1588;50.892;7.082;2022-11-18T16:00:45;7.60;;;3.00;;
3155;SDS011;1588;50.892;7.082;2022-11-18T16:05:47;7.97;;;2.23;;
3155;SDS011;1588;50.892;7.082;2022-11-18T16:10:53;9.00;;;2.10;;
3155;SDS011;1588;50.892;7.082;2022-11-18T16:16:18;20.80;;;2.40;;
3155;SDS011;1588;50.892;7.082;2022-11-18T16:21:20;11.90;;;1.90;;
3155;SDS011;1588;50.892;7.082;2022-11-18T16:26:25;9.57;;;1.90;;
3155;SDS011;1588;50.892;7.082;2022-11-18T16:31:29;9.47;;;2.60;;
3155;SDS011;1588;50.892;7.082;2022-11-18T16:36:41;2.70;;;2.13;;
3155;SDS011;1588;50.892;7.082;2022-11-18T16:41:44;4.87;;;2.10;;
3155;SDS011;1588;50.892;7.082;2022-11-18T16:46:49;2.10;;;1.77;;
3155;SDS011;1588;50.892;7.082;2022-11-18T16:51:55;8.33;;;2.17;;
3155;SDS011;1588;50.892;7.082;2022-11-18T16:57:07;9.23;;;2.40;;
3155;SDS011;1588;50.892;7.082;2022-11-18T17:02:11;11.40;;;2.93;;
3155;SDS011;1588;50.892;7.082;2022-11-18T17:07:16;8.13;;;3.37;;
3155;SDS011;1588;50.892;7.082;2022-11-18T17:12:18;4.83;;;2.17;;
3155;SDS011;1588;50.892;7.082;2022-11-18T17:17:26;6.93;;;2.80;;
3155;SDS011;1588;50.892;7.082;2022-11-18T17:22:38;15.80;;;2.80;;
3155;SDS011;1588;50.892;7.082;2022-11-18T17:27:41;10.93;;;3.33;;
3155;SDS011;1588;50.892;7.082;2022-11-18T17:32:45;14.73;;;3.10;;
3155;SDS011;1588;50.892;7.082;2022-11-18T17:37:50;11.50;;;4.30;;
3155;SDS011;1588;50.892;7.082;2022-11-18T17:42:58;10.20;;;4.80;;
3155;SDS011;1588;50.892;7.082;2022-11-18T17:48:03;14.63;;;4.50;;
3155;SDS011;1588;50.892;7.082;2022-11-18T17:53:07;9.67;;;4.10;;
3155;SDS011;1588;50.892;7.082;2022-11-18T17:58:10;7.70;;;3.70;;
3155;SDS011;1588;50.892;7.082;2022-11-18T18:03:18;16.03;;;4.33;;
3155;SDS011;1588;50.892;7.082;2022-11-18T18:08:21;13.30;;;4.93;;
3155;SDS011;1588;50.892;7.082;2022-11-18T18:13:23;13.83;;;6.07;;
3155;SDS011;1588;50.892;7.082;2022-11-18T18:18:44;9.10;;;4.53;;
3155;SDS011;1588;50.892;7.082;2022-11-18T18:23:46;11.30;;;4.77;;
3155;SDS011;1588;50.892;7.082;2022-11-18T18:28:49;13.07;;;5.20;;
3155;SDS011;1588;50.892;7.082;2022-11-18T18:33:52;10.90;;;4.40;;
3155;SDS011;1588;50.892;7.082;2022-11-18T18:38:55;17.03;;;4.93;;
3155;SDS011;1588;50.892;7.082;2022-11-18T18:44:00;10.97;;;4.50;;
3155;SDS011;1588;50.892;7.082;2022-11-18T18:49:05;11.03;;;3.63;;
3155;SDS011;1588;50.892;7.082;2022-11-18T18:54:15;7.20;;;3.60;;
3155;SDS011;1588;50.892;7.082;2022-11-18T19:00:00;10.20;;;4.10;;
3155;SDS011;1588;50.892;7.082;2022-11-18T19:11:05;10.43;;;3.47;;
3155;SDS011;1588;50.892;7.082;2022-11-18T19:16:39;10.20;;;4.00;;
3155;SDS011;1588;50.892;7.082;2022-11-18T19:23:18;6.87;;;3.43;;
3155;SDS011;1588;50.892;7.082;2022-11-18T19:28:26;9.60;;;4.40;;
3155;SDS011;1588;50.892;7.082;2022-11-18T19:36:26;7.17;;;3.97;;
3155;SDS011;1588;50.892;7.082;2022-11-18T19:40:06;15.70;;;5.60;;
3155;SDS011;1588;50.892;7.082;2022-11-18T19:45:15;11.63;;;5.73;;
3155;SDS011;1588;50.892;7.082;2022-11-18T19:50:28;7.63;;;3.90;;
3155;SDS011;1588;50.892;7.082;2022-11-18T19:55:30;8.40;;;3.73;;
3155;SDS011;1588;50.892;7.082;2022-11-18T20:00:34;7.20;;;4.00;;
3155;SDS011;1588;50.892;7.082;2022-11-18T20:05:39;10.50;;;4.67;;
3155;SDS011;1588;50.892;7.082;2022-11-18T20:11:09;11.33;;;3.60;;
3155;SDS011;1588;50.892;7.082;2022-11-18T20:16:18;22.03;;;4.43;;
3155;SDS011;1588;50.892;7.082;2022-11-18T20:21:24;10.43;;;4.10;;
3155;SDS011;1588;50.892;7.082;2022-11-18T20:26:29;20.23;;;7.70;;
3155;SDS011;1588;50.892;7.082;2022-11-18T20:31:35;9.30;;;3.23;;
3155;SDS011;1588;50.892;7.082;2022-11-18T20:36:38;11.13;;;3.97;;
3155;SDS011;1588;50.892;7.082;2022-11-18T20:41:41;8.80;;;5.03;;
3155;SDS011;1588;50.892;7.082;2022-11-18T20:47:05;12.40;;;4.40;;
3155;SDS011;1588;50.892;7.082;2022-11-18T20:52:07;8.20;;;3.20;;
3155;SDS011;1588;50.892;7.082;2022-11-18T20:57:11;5.50;;;3.57;;
3155;SDS011;1588;50.892;7.082;2022-11-18T21:02:21;15.27;;;3.80;;
3155;SDS011;1588;50.892;7.082;2022-11-18T21:07:23;7.87;;;3.80;;
3155;SDS011;1588;50.892;7.082;2022-11-18T21:12:27;9.00;;;4.57;;
3155;SDS011;1588;50.892;7.082;2022-11-18T21:17:31;11.20;;;5.13;;
3155;SDS011;1588;50.892;7.082;2022-11-18T21:22:39;11.43;;;5.07;;
3155;SDS011;1588;50.892;7.082;2022-11-18T21:27:41;11.73;;;4.87;;
3155;SDS011;1588;50.892;7.082;2022-11-18T21:32:45;9.10;;;5.20;;
3155;SDS011;1588;50.892;7.082;2022-11-18T21:37:48;9.33;;;5.00;;
3155;SDS011;1588;50.892;7.082;2022-11-18T21:42:50;7.70;;;4.13;;
3155;SDS011;1588;50.892;7.082;2022-11-18T21:47:59;11.50;;;5.13;;
3155;SDS011;1588;50.892;7.082;2022-11-18T21:53:01;9.20;;;5.13;;
3155;SDS011;1588;50.892;7.082;2022-11-18T21:58:03;17.20;;;5.80;;
3155;SDS011;1588;50.892;7.082;2022-11-18T22:03:07;14.47;;;6.90;;
3155;SDS011;1588;50.892;7.082;2022-11-18T22:08:10;13.97;;;6.20;;
3155;SDS011;1588;50.892;7.082;2022-11-18T22:13:12;13.97;;;6.47;;
3155;SDS011;1588;50.892;7.082;2022-11-18T22:18:17;23.10;;;6.63;;
3155;SDS011;1588;50.892;7.082;2022-11-18T22:23:19;12.23;;;6.13;;
3155;SDS011;1588;50.892;7.082;2022-11-18T22:28:22;20.37;;;7.50;;
3155;SDS011;1588;50.892;7.082;2022-11-18T22:33:32;15.30;;;6.70;;
3155;SDS011;1588;50.892;7.082;2022-11-18T22:38:34;19.60;;;7.90;;
3155;SDS011;1588;50.892;7.082;2022-11-18T22:43:37;15.53;;;8.10;;
3155;SDS011;1588;50.892;7.082;2022-11-18T22:48:41;18.47;;;9.10;;
3155;SDS011;1588;50.892;7.082;2022-11-18T22:53:47;14.87;;;7.57;;
3155;SDS011;1588;50.892;7.082;2022-11-18T22:58:53;16.90;;;8.57;;
3155;SDS011;1588;50.892;7.082;2022-11-18T23:03:57;18.10;;;8.47;;
3155;SDS011;1588;50.892;7.082;2022-11-18T23:08:59;17.17;;;8.20;;
3155;SDS011;1588;50.892;7.082;2022-11-18T23:14:03;19.63;;;9.27;;
3155;SDS011;1588;50.892;7.082;2022-11-18T23:19:09;17.23;;;9.20;;
3155;SDS011;1588;50.892;7.082;2022-11-18T23:24:21;21.60;;;10.10;;
3155;SDS011;1588;50.892;7.082;2022-11-18T23:29:23;23.37;;;8.63;;
3155;SDS011;1588;50.892;7.082;2022-11-18T23:34:27;15.23;;;8.50;;
3155;SDS011;1588;50.892;7.082;2022-11-18T23:39:30;15.97;;;8.40;;
3155;SDS011;1588;50.892;7.082;2022-11-18T23:44:36;22.07;;;9.37;;
3155;SDS011;1588;50.892;7.082;2022-11-18T23:49:50;21.77;;;9.07;;
3155;SDS011;1588;50.892;7.082;2022-11-18T23:54:53;22.77;;;10.13;;
3155;SDS011;1588;50.892;7.082;2022-11-18T23:59:57;16.50;;;8.37;;
